地図

経路データ

SID SEASON NUMBER BASIN SUBBASIN NAME ISO_TIME NATURE LAT LON WMO_WIND WMO_PRES WMO_AGENCY TRACK_TYPE DIST2LAND LANDFALL IFLAG USA_AGENCY USA_ATCF_ID USA_LAT USA_LON USA_RECORD USA_STATUS USA_WIND USA_PRES USA_SSHS USA_R34_NE USA_R34_SE USA_R34_SW USA_R34_NW USA_R50_NE USA_R50_SE USA_R50_SW USA_R50_NW USA_R64_NE USA_R64_SE USA_R64_SW USA_R64_NW USA_POCI USA_ROCI USA_RMW USA_EYE TOKYO_LAT TOKYO_LON TOKYO_GRADE TOKYO_WIND TOKYO_PRES TOKYO_R50_DIR TOKYO_R50_LONG TOKYO_R50_SHORT TOKYO_R30_DIR TOKYO_R30_LONG TOKYO_R30_SHORT TOKYO_LAND CMA_LAT CMA_LON CMA_CAT CMA_WIND CMA_PRES HKO_LAT HKO_LON HKO_CAT HKO_WIND HKO_PRES NEWDELHI_LAT NEWDELHI_LON NEWDELHI_GRADE NEWDELHI_WIND NEWDELHI_PRES NEWDELHI_CI NEWDELHI_DP NEWDELHI_POCI REUNION_LAT REUNION_LON REUNION_TYPE REUNION_WIND REUNION_PRES REUNION_TNUM REUNION_CI REUNION_RMW REUNION_R34_NE REUNION_R34_SE REUNION_R34_SW REUNION_R34_NW REUNION_R50_NE REUNION_R50_SE REUNION_R50_SW REUNION_R50_NW REUNION_R64_NE REUNION_R64_SE REUNION_R64_SW REUNION_R64_NW BOM_LAT BOM_LON BOM_TYPE BOM_WIND BOM_PRES BOM_TNUM BOM_CI BOM_RMW BOM_R34_NE BOM_R34_SE BOM_R34_SW BOM_R34_NW BOM_R50_NE BOM_R50_SE BOM_R50_SW BOM_R50_NW BOM_R64_NE BOM_R64_SE BOM_R64_SW BOM_R64_NW BOM_ROCI BOM_POCI BOM_EYE BOM_POS_METHOD BOM_PRES_METHOD NADI_LAT NADI_LON NADI_CAT NADI_WIND NADI_PRES WELLINGTON_LAT WELLINGTON_LON WELLINGTON_WIND WELLINGTON_PRES DS824_LAT DS824_LON DS824_STAGE DS824_WIND DS824_PRES TD9636_LAT TD9636_LON TD9636_STAGE TD9636_WIND TD9636_PRES TD9635_LAT TD9635_LON TD9635_WIND TD9635_PRES TD9635_ROCI NEUMANN_LAT NEUMANN_LON NEUMANN_CLASS NEUMANN_WIND NEUMANN_PRES MLC_LAT MLC_LON MLC_CLASS MLC_WIND MLC_PRES USA_GUST BOM_GUST BOM_GUST_PER REUNION_GUST REUNION_GUST_PER USA_SEAHGT USA_SEARAD_NE USA_SEARAD_SE USA_SEARAD_SW USA_SEARAD_NW STORM_SPEED STORM_DIR
1902164N18276 1902 19 NA CS NOT_NAMED 1902-06-12 12:00:00 TS 17.7000 -84.0000 30 hurdat_atl main 214 214 O_____________ hurdat_atl AL011902 17.7000 -84.0000 TD 30 -1 14 16
1902164N18276 1902 19 NA CS NOT_NAMED 1902-06-12 15:00:00 TS 18.3776 -83.7928 main 295 270 P_____________ AL011902 18.3776 -83.7928 TD 30 -1 15 15
1902164N18276 1902 19 NA CS NOT_NAMED 1902-06-12 18:00:00 TS 19.1000 -83.6000 30 hurdat_atl main 270 189 O_____________ hurdat_atl AL011902 19.1000 -83.6000 TD 30 -1 16 13
1902164N18276 1902 19 NA CS NOT_NAMED 1902-06-12 21:00:00 TS 19.8925 -83.4349 main 178 93 P_____________ AL011902 19.8925 -83.4349 TD 32 -1 16 10
1902164N18276 1902 19 NA CS NOT_NAMED 1902-06-13 00:00:00 TS 20.7000 -83.3000 35 hurdat_atl main 93 23 O_____________ hurdat_atl AL011902 20.7000 -83.3000 TS 35 0 16 9
1902164N18276 1902 19 NA CS NOT_NAMED 1902-06-13 03:00:00 TS 21.4500 -83.1849 main 23 0 P_____________ AL011902 21.4500 -83.1849 TS 37 0 15 7
1902164N18276 1902 19 NA CS NOT_NAMED 1902-06-13 06:00:00 TS 22.2000 -83.1000 40 hurdat_atl main 23 0 O_____________ hurdat_atl AL011902 22.2000 -83.1000 TS 40 0 16 6
1902164N18276 1902 19 NA GM NOT_NAMED 1902-06-13 09:00:00 TS 23.0300 -83.0202 main 11 11 P_____________ AL011902 23.0300 -83.0202 TS 42 0 16 3
1902164N18276 1902 19 NA GM NOT_NAMED 1902-06-13 12:00:00 TS 23.8000 -83.0000 45 hurdat_atl main 91 91 O_____________ hurdat_atl AL011902 23.8000 -83.0000 TS 45 0 14 359
1902164N18276 1902 19 NA GM NOT_NAMED 1902-06-13 15:00:00 TS 24.3950 -83.0699 main 157 157 P_____________ AL011902 24.3950 -83.0699 TS 47 0 11 351
1902164N18276 1902 19 NA GM NOT_NAMED 1902-06-13 18:00:00 TS 24.9000 -83.2000 50 hurdat_atl main 187 169 O_____________ hurdat_atl AL011902 24.9000 -83.2000 TS 50 0 10 346
1902164N18276 1902 19 NA GM NOT_NAMED 1902-06-13 21:00:00 TS 25.4075 -83.3426 main 169 156 P_____________ AL011902 25.4075 -83.3426 TS 50 0 10 345
1902164N18276 1902 19 NA GM NOT_NAMED 1902-06-14 00:00:00 TS 25.9000 -83.5000 50 hurdat_atl main 156 136 O_____________ hurdat_atl AL011902 25.9000 -83.5000 TS 50 0 10 344
1902164N18276 1902 19 NA GM NOT_NAMED 1902-06-14 03:00:00 TS 26.3925 -83.6576 main 146 126 P_____________ AL011902 26.3925 -83.6576 TS 50 0 10 345
1902164N18276 1902 19 NA GM NOT_NAMED 1902-06-14 06:00:00 TS 26.9000 -83.8000 50 hurdat_atl main 126 113 O_____________ hurdat_atl AL011902 26.9000 -83.8000 TS 50 0 11 347
1902164N18276 1902 19 NA GM NOT_NAMED 1902-06-14 09:00:00 TS 27.4500 -83.9298 main 108 107 P_____________ AL011902 27.4500 -83.9298 TS 50 0 11 351
1902164N18276 1902 19 NA GM NOT_NAMED 1902-06-14 12:00:00 TS 28.0000 -84.0000 50 hurdat_atl main 108 108 O_____________ hurdat_atl AL011902 28.0000 -84.0000 TS 50 0 11 357
1902164N18276 1902 19 NA GM NOT_NAMED 1902-06-14 15:00:00 TS 28.5106 -83.9836 main 117 73 P_____________ AL011902 28.5106 -83.9836 TS 50 0 10 5
1902164N18276 1902 19 NA GM NOT_NAMED 1902-06-14 18:00:00 TS 29.0000 -83.9000 50 hurdat_atl main 73 40 O_____________ hurdat_atl AL011902 29.0000 -83.9000 TS 50 0 10 8
1902164N18276 1902 19 NA GM NOT_NAMED 1902-06-14 21:00:00 TS 29.4531 -83.8274 main 38 9 P_____________ AL011902 29.4531 -83.8274 TS 50 0 10 12
1902164N18276 1902 19 NA GM NOT_NAMED 1902-06-14 23:00:00 TS 29.8000 -83.7000 50 hurdat_atl main 9 0 O_____________ hurdat_atl AL011902 29.8000 -83.7000 L TS 50 0 12 20
1902164N18276 1902 19 NA NA NOT_NAMED 1902-06-15 00:00:00 TS 30.0000 -83.6000 45 hurdat_atl main 0 0 O_____________ hurdat_atl AL011902 30.0000 -83.6000 TS 45 0 12 20
1902164N18276 1902 19 NA NA NOT_NAMED 1902-06-15 03:00:00 TS 30.5268 -83.3903 main 0 0 P_____________ AL011902 30.5268 -83.3903 TS 42 0 11 19
1902164N18276 1902 19 NA NA NOT_NAMED 1902-06-15 06:00:00 TS 31.0000 -83.2000 40 hurdat_atl main 0 0 O_____________ hurdat_atl AL011902 31.0000 -83.2000 TS 40 0 11 24
1902164N18276 1902 19 NA NA NOT_NAMED 1902-06-15 09:00:00 TS 31.5000 -82.8799 main 0 0 P_____________ AL011902 31.5000 -82.8799 TS 37 0 12 31
1902164N18276 1902 19 NA NA NOT_NAMED 1902-06-15 12:00:00 TS 32.0000 -82.5000 35 hurdat_atl main 0 0 O_____________ hurdat_atl AL011902 32.0000 -82.5000 TS 35 0 12 33
1902164N18276 1902 19 NA NA NOT_NAMED 1902-06-15 15:00:00 TS 32.4998 -82.1219 main 0 0 P_____________ AL011902 32.4998 -82.1219 TS 35 0 12 34
1902164N18276 1902 19 NA NA NOT_NAMED 1902-06-15 18:00:00 TS 33.0000 -81.7000 35 hurdat_atl main 0 0 O_____________ hurdat_atl AL011902 33.0000 -81.7000 TS 35 0 12 37
1902164N18276 1902 19 NA NA NOT_NAMED 1902-06-15 21:00:00 TS 33.4848 -81.2291 main 0 0 P_____________ AL011902 33.4848 -81.2291 TS 35 0 13 40
1902164N18276 1902 19 NA NA NOT_NAMED 1902-06-16 00:00:00 TS 34.0000 -80.7000 35 hurdat_atl main 0 0 O_____________ hurdat_atl AL011902 34.0000 -80.7000 TS 35 0 14 40
1902164N18276 1902 19 NA NA NOT_NAMED 1902-06-16 03:00:00 TS 34.5621 -80.1361 main 0 0 P_____________ AL011902 34.5621 -80.1361 TS 35 0 16 39
1902164N18276 1902 19 NA NA NOT_NAMED 1902-06-16 06:00:00 TS 35.2000 -79.5000 35 hurdat_atl main 0 0 O_____________ hurdat_atl AL011902 35.2000 -79.5000 TS 35 0 17 37
1902164N18276 1902 19 NA NA NOT_NAMED 1902-06-16 09:00:00 TS 35.8945 -78.8869 main 0 0 P_____________ AL011902 35.8945 -78.8869 TS 37 0 19 39
1902164N18276 1902 19 NA NA NOT_NAMED 1902-06-16 12:00:00 ET 36.7000 -78.0000 40 hurdat_atl main 0 0 O_____________ hurdat_atl AL011902 36.7000 -78.0000 EX 40 -4 25 49
1902164N18276 1902 19 NA NA NOT_NAMED 1902-06-16 15:00:00 ET 37.5165 -76.5852 main 0 0 P_____________ AL011902 37.5165 -76.5852 EX 40 -4 31 52
1902164N18276 1902 19 NA NA NOT_NAMED 1902-06-16 18:00:00 ET 38.6000 -74.9000 40 hurdat_atl main 17 17 O_____________ hurdat_atl AL011902 38.6000 -74.9000 EX 40 -4 37 45
1902164N18276 1902 19 NA NA NOT_NAMED 1902-06-16 21:00:00 ET 40.1593 -73.2169 main 51 0 P_____________ AL011902 40.1593 -73.2169 EX 37 -4 42 38
1902164N18276 1902 19 NA NA NOT_NAMED 1902-06-17 00:00:00 ET 41.9000 -71.5000 35 hurdat_atl main 0 0 O_____________ hurdat_atl AL011902 41.9000 -71.5000 EX 35 -4 42 38
1902164N18276 1902 19 NA NA NOT_NAMED 1902-06-17 03:00:00 ET 43.5099 -69.7598 main 22 0 P_____________ AL011902 43.5099 -69.7598 EX 35 -4 39 38
1902164N18276 1902 19 NA NA NOT_NAMED 1902-06-17 06:00:00 ET 45.0000 -68.2000 35 hurdat_atl main 0 0 O_____________ hurdat_atl AL011902 45.0000 -68.2000 EX 35 -4 34 35
1902164N18276 1902 19 NA NA NOT_NAMED 1902-06-17 09:00:00 ET 46.3360 -66.9926 main 0 0 P_____________ AL011902 46.3360 -66.9926 EX 32 -4 29 31
1902164N18276 1902 19 NA NA NOT_NAMED 1902-06-17 12:00:00 ET 47.5000 -66.0000 30 hurdat_atl main 0 0 O_____________ hurdat_atl AL011902 47.5000 -66.0000 EX 30 -4 25 32
1902164N18276 1902 19 NA NA NOT_NAMED 1902-06-17 15:00:00 ET 48.4980 -65.0165 main 0 0 P_____________ AL011902 48.4980 -65.0165 EX 30 -4 23 35
1902164N18276 1902 19 NA NA NOT_NAMED 1902-06-17 18:00:00 ET 49.4000 -64.0000 30 hurdat_atl main 24 O_____________ hurdat_atl AL011902 49.4000 -64.0000 EX 30 -4 22 36

IBTrACS Databaseについて

本データベースは、米国NOAAが公開する1842年以降の世界の熱帯低気圧のベストトラックデータアーカイブInternational Best Track Archive for Climate Stewardship (IBTrACS)を、ウェブで閲覧しやすい形式に変換したものです。

最終更新日:2021-12-01